Latest Weather Observations for Bankstown

IDN60801

Issued at 1:33 pm EST Monday 27 June 2016 (issued every 30 minutes, with the page automatically refreshed every 10 minutes)

About weather observations | Map of weather stations | Latest weather observations for NSW | Other Formats
Station Details ID: 066137 Name: BANKSTOWN AIRPORT AWS Lat: -33.92 Lon: 150.99 Height: 6.5 m
Data from the previous 72 hours. | See also: Recent months at Bankstown
Date/Time
EST
Temp
°C
App
Temp
°C
Dew
Point
°C
Rel
Hum
%
Delta-T
°C
Wind Press
QNH
hPa
Press
MSL
hPa
Rain since
9am
mm
Dir  Spd
km/h
Gust
km/h
Spd
kts
Gust
kts
27/01:30pm 11.9 8.5 6.0 67 2.8 SW 13 20 7 11 1013.2 1013.2 0.6
27/01:00pm 12.0 7.9 6.1 67 2.8 W 17 24 9 13 1013.3 1013.3 0.6
27/12:30pm 10.7 8.3 7.0 78 1.8 W 9 15 5 8 1013.6 1013.6 0.6
27/12:00pm 9.9 6.6 6.6 80 1.5 W 13 19 7 10 1014.0 1014.0 0.6
27/11:30am 9.1 6.5 6.2 82 1.3 WNW 9 13 5 7 1014.4 1014.4 0.6
27/11:00am 8.4 5.4 6.2 86 1.0 WSW 11 17 6 9 1014.9 1014.9 0.6
27/10:30am 8.3 5.3 5.8 84 1.1 WSW 11 15 6 8 1015.1 1015.1 0.2
27/10:00am 8.5 4.3 5.8 83 1.2 W 17 22 9 12 1015.5 1015.5 0.0
27/09:30am 8.6 5.6 6.2 85 1.1 WNW 11 15 6 8 1015.7 1015.7 0.0
27/09:00am 8.4 5.0 6.0 85 1.1 WNW 13 17 7 9 1015.9 1015.9 0.0
27/08:30am 8.5 4.7 5.8 83 1.2 WNW 15 19 8 10 1015.9 1015.9 0.0
27/08:00am 8.7 4.7 5.1 78 1.6 NW 15 22 8 12 1015.9 1015.9 0.0
27/07:30am 8.9 5.6 4.5 74 1.9 WSW 11 17 6 9 1015.5 1015.5 0.0
27/07:00am 8.8 6.0 5.0 77 1.7 SW 9 15 5 8 1015.4 1015.4 0.0
27/06:30am 8.5 6.3 5.4 81 1.4 WSW 6 9 3 5 1015.2 1015.2 0.0
27/06:00am 8.6 5.9 5.4 80 1.4 WNW 9 13 5 7 1015.1 1015.1 0.0
27/05:30am 8.4 5.2 5.3 81 1.4 NNW 11 13 6 7 1015.1 1015.1 0.0
27/05:00am 8.3 5.1 5.1 80 1.4 NNW 11 13 6 7 1014.9 1014.9 0.0
27/04:30am 8.2 5.4 5.1 81 1.4 NNW 9 13 5 7 1014.6 1014.6 0.0
27/04:00am 7.9 5.5 5.2 83 1.2 NW 7 9 4 5 1014.6 1014.6 0.0
27/03:30am 8.1 4.5 5.0 81 1.4 NNW 13 17 7 9 1014.8 1014.8 0.0
27/03:00am 7.7 5.5 5.2 84 1.1 SW 6 11 3 6 1014.7 1014.7 0.0
27/02:30am 7.6 5.4 5.1 84 1.1 WSW 6 7 3 4 1014.9 1014.9 0.0
27/02:00am 7.2 5.1 5.7 90 0.7 NW 6 7 3 4 1015.2 1015.2 0.0
27/01:30am 7.5 6.5 5.6 88 0.8 CALM 0 0 0 0 1015.3 1015.3 0.0
27/01:00am 7.9 6.9 5.7 86 1.0 CALM 0 0 0 0 1015.3 1015.3 0.0
27/12:30am 8.0 5.6 5.3 83 1.2 NNW 7 9 4 5 1015.8 1015.8 0.0
27/12:00am 8.2 5.2 5.8 85 1.1 NW 11 15 6 8 1016.1 1016.1 0.0
 
Date/Time
EST
Temp
°C
App
Temp
°C
Dew
Point
°C
Rel
Hum
%
Delta-T
°C
Wind Press
QNH
hPa
Press
MSL
hPa
Rain since
9am
mm
Dir  Spd
km/h
Gust
km/h
Spd
kts
Gust
kts
26/11:30pm 7.9 5.8 6.0 88 0.9 N 6 9 3 5 1015.8 1015.8 0.0
26/11:00pm 7.5 6.6 6.0 90 0.7 CALM 0 6 0 3 1015.8 1015.8 0.0
26/10:30pm 7.4 6.4 5.4 87 0.9 CALM 0 0 0 0 1015.6 1015.6 0.0
26/10:00pm 7.7 6.7 5.5 86 1.0 CALM 0 0 0 0 1015.9 1015.9 0.0
26/09:30pm 8.4 7.4 5.5 82 1.3 CALM 0 0 0 0 1016.5 1016.5 0.0
26/09:00pm 8.6 7.7 5.9 83 1.2 CALM 0 0 0 0 1016.9 1016.9 0.0
26/08:30pm 8.7 7.6 4.9 77 1.7 CALM 0 0 0 0 1017.4 1017.4 0.0
26/08:00pm 9.2 8.2 5.4 77 1.7 CALM 0 0 0 0 1017.7 1017.7 0.0
26/07:30pm 9.0 7.9 5.2 77 1.7 CALM 0 0 0 0 1017.1 1017.1 0.0
26/07:00pm 9.7 8.5 4.5 70 2.3 CALM 0 0 0 0 1017.1 1017.1 0.0
26/06:30pm 9.6 8.5 5.0 73 2.1 CALM 0 0 0 0 1016.8 1016.8 0.0
26/06:00pm 9.8 8.6 4.8 71 2.2 CALM 0 0 0 0 1017.0 1017.0 0.0
26/05:30pm 11.1 9.9 4.6 64 2.9 CALM 0 0 0 0 1016.6 1016.6 0.0
26/05:00pm 11.6 10.4 4.8 63 3.1 CALM 0 0 0 0 1016.3 1016.3 0.0
26/04:30pm 12.5 11.2 4.2 57 3.8 CALM 0 0 0 0 1016.5 1016.5 0.0
26/04:00pm 13.4 11.9 2.9 49 4.6 CALM 0 0 0 0 1016.5 1016.5 0.0
26/03:30pm 13.6 10.6 2.2 46 5.0 NNW 7 9 4 5 1017.3 1017.3 0.0
26/03:00pm 14.0 11.6 2.3 45 5.1 NNW 4 9 2 5 1017.1 1017.1 0.0
26/02:30pm 13.8 10.5 2.7 47 4.9 NNW 9 11 5 6 1017.4 1017.4 0.0
26/02:00pm 14.0 11.3 2.6 46 5.0 NW 6 9 3 5 1017.5 1017.5 0.0
26/01:30pm 13.5 10.3 3.3 50 4.6 NW 9 13 5 7 1017.9 1017.9 0.0
26/01:00pm 13.8 11.4 4.1 52 4.4 NNW 6 11 3 6 1018.2 1018.2 0.0
26/12:30pm 13.1 10.4 2.9 50 4.5 WNW 6 9 3 5 1018.4 1018.4 0.0
26/12:00pm 12.7 9.0 2.6 50 4.4 NW 11 15 6 8 1019.0 1019.0 0.0
26/11:30am 11.9 8.6 2.6 53 4.0 NW 9 15 5 8 1019.8 1019.8 0.0
26/11:00am 11.4 8.0 1.9 52 4.0 WNW 9 15 5 8 1020.4 1020.4 0.0
26/10:30am 10.5 6.3 1.6 54 3.7 W 13 19 7 10 1020.9 1020.9 0.0
26/10:00am 9.7 5.5 1.8 58 3.3 W 13 19 7 10 1021.5 1021.5 0.0
26/09:30am 8.4 4.5 1.3 61 2.9 WNW 11 15 6 8 1021.3 1021.3 0.0
26/09:00am 7.4 4.4 2.1 69 2.2 W 7 9 4 5 1021.2 1021.2 0.0
26/08:30am 5.5 2.4 1.2 74 1.7 NW 7 9 4 5 1021.3 1021.3 0.0
26/08:00am 4.3 1.2 1.3 81 1.2 NNW 7 9 4 5 1021.5 1021.5 0.0
26/07:30am 3.0 0.0 1.1 87 0.7 NNW 6 9 3 5 1021.5 1021.5 0.0
26/07:00am 2.5 -0.5 0.6 87 0.7 NNW 6 7 3 4 1021.5 1021.5 0.0
26/06:30am 2.8 -0.8 0.7 86 0.8 NNW 9 13 5 7 1021.1 1021.1 0.0
26/06:00am 3.1 -0.9 0.7 84 0.9 NNW 11 13 6 7 1020.8 1020.8 0.0
26/05:30am 3.5 -0.1 0.7 82 1.1 NNW 9 9 5 5 1020.8 1020.8 0.0
26/05:00am 3.9 0.9 0.8 80 1.2 NNW 6 9 3 5 1020.7 1020.7 0.0
26/04:30am 4.2 1.1 1.2 81 1.2 NW 7 11 4 6 1020.2 1020.2 0.0
26/04:00am 3.9 0.7 0.6 79 1.3 W 7 9 4 5 1019.9 1019.9 0.0
26/03:30am 4.1 -0.6 0.8 79 1.3 W 15 20 8 11 1019.6 1019.6 0.0
26/03:00am 3.8 0.2 0.5 79 1.2 WSW 9 9 5 5 1020.4 1020.4 0.0
26/02:30am 4.0 0.8 0.5 78 1.3 WSW 7 11 4 6 1020.6 1020.6 0.0
26/02:00am 4.2 1.2 0.5 77 1.4 WSW 6 7 3 4 1020.8 1020.8 0.0
26/01:30am 4.6 1.6 0.6 75 1.5 WSW 6 7 3 4 1021.0 1021.0 0.0
26/01:00am 4.6 1.0 0.6 75 1.5 WNW 9 11 5 6 1021.1 1021.1 0.0
26/12:30am 5.1 1.5 0.7 73 1.7 WSW 9 13 5 7 1021.1 1021.1 0.0
26/12:00am 5.5 2.3 0.7 71 1.9 WSW 7 11 4 6 1021.1 1021.1 0.0
 
Date/Time
EST
Temp
°C
App
Temp
°C
Dew
Point
°C
Rel
Hum
%
Delta-T
°C
Wind Press
QNH
hPa
Press
MSL
hPa
Rain since
9am
mm
Dir  Spd
km/h
Gust
km/h
Spd
kts
Gust
kts
25/11:30pm 5.6 1.6 0.8 71 1.9 WSW 11 17 6 9 1021.1 1021.1 0.0
25/11:00pm 5.7 2.1 0.9 71 1.9 WSW 9 13 5 7 1021.1 1021.1 0.0
25/10:30pm 6.1 2.6 1.1 70 2.0 WSW 9 11 5 6 1020.9 1020.9 0.0
25/10:00pm 6.5 3.8 0.4 65 2.4 WSW 4 6 2 3 1020.9 1020.9 0.0
25/09:30pm 7.0 4.0 0.9 65 2.4 WSW 6 7 3 4 1020.9 1020.9 0.0
25/09:00pm 7.2 3.6 0.4 62 2.7 WSW 9 11 5 6 1020.7 1020.7 0.0
25/08:30pm 7.9 4.3 0.6 60 2.9 W 9 13 5 7 1020.7 1020.7 0.0
25/08:00pm 7.8 4.2 0.8 61 2.8 WSW 9 13 5 7 1020.7 1020.7 0.0
25/07:30pm 8.1 5.1 0.6 59 3.0 WSW 6 7 3 4 1020.6 1020.6 0.0
25/07:00pm 9.0 5.7 0.2 54 3.5 WSW 7 11 4 6 1020.4 1020.4 0.0
25/06:30pm 10.0 6.0 0.3 51 3.9 WSW 11 17 6 9 1020.1 1020.1 0.0
25/06:00pm 10.5 6.1 0.5 50 4.1 WSW 13 15 7 8 1019.9 1019.9 0.0
25/05:30pm 10.5 6.8 -0.3 47 4.3 WSW 9 15 5 8 1019.5 1019.5 0.0
25/05:00pm 11.1 7.6 -1.3 42 4.9 SW 7 11 4 6 1019.1 1019.1 0.0
25/04:30pm 12.6 7.5 -2.1 36 5.8 SSW 15 20 8 11 1019.0 1019.0 0.0
25/04:00pm 13.4 8.2 -2.5 33 6.2 SSW 15 24 8 13 1018.8 1018.8 0.0
25/03:30pm 14.1 8.6 -1.9 33 6.4 SW 17 22 9 12 1018.6 1018.6 0.0
25/03:00pm 14.3 9.2 -2.1 32 6.5 SW 15 22 8 12 1018.4 1018.4 0.0
25/02:30pm 14.2 8.3 -2.2 32 6.5 SW 19 24 10 13 1018.2 1018.2 0.0
25/02:00pm 14.5 8.7 -1.2 34 6.4 SSW 19 28 10 15 1018.2 1018.2 0.0
25/01:30pm 14.1 8.1 -1.5 34 6.3 SSW 20 30 11 16 1018.1 1018.1 0.0
25/01:00pm 13.9 7.6 -1.3 35 6.2 SW 22 33 12 18 1018.1 1018.1 0.0
25/12:30pm 13.5 7.5 -1.6 35 6.1 SSW 20 30 11 16 1018.3 1018.3 0.0
25/12:00pm 13.4 7.5 -1.0 37 5.8 SW 20 35 11 19 1018.5 1018.5 0.0
25/11:30am 12.5 5.4 -1.1 39 5.5 WSW 26 33 14 18 1018.7 1018.7 0.0
25/11:00am 11.8 4.6 -2.4 37 5.5 SW 26 35 14 19 1018.9 1018.9 0.0
25/10:30am 11.6 5.8 -1.5 40 5.2 SW 19 30 10 16 1019.1 1019.1 0.0
25/10:00am 10.5 3.7 -1.5 43 4.7 WSW 24 35 13 19 1019.1 1019.1 0.0
25/09:30am 9.7 3.8 -1.1 47 4.2 SW 20 32 11 17 1019.0 1019.0 0.0
25/09:00am 8.9 2.9 -1.2 49 3.9 WSW 20 30 11 16 1018.8 1018.8 0.0
25/08:30am 8.1 2.4 -0.9 53 3.5 WSW 19 26 10 14 1018.3 1018.3 0.0
25/08:00am 7.4 2.1 -0.8 56 3.1 WSW 17 22 9 12 1017.8 1017.8 0.0
25/07:30am 6.3 2.5 -1.1 59 2.8 WSW 9 15 5 8 1018.0 1018.0 0.0
25/07:00am 6.1 1.5 -1.3 59 2.7 W 13 20 7 11 1017.4 1017.4 0.0
25/06:30am 7.0 1.6 -1.4 55 3.2 W 17 26 9 14 1016.9 1016.9 0.0
25/06:00am 7.2 1.2 -1.2 55 3.2 W 20 32 11 17 1016.5 1016.5 0.0
25/05:30am 7.2 1.8 -1.2 55 3.2 WSW 17 24 9 13 1016.1 1016.1 0.0
25/05:00am 7.2 3.0 -1.0 56 3.1 W 11 22 6 12 1015.7 1015.7 0.0
25/04:30am 7.6 1.9 -0.8 55 3.2 WSW 19 28 10 15 1015.2 1015.2 0.0
25/04:00am 7.9 0.4 -1.1 53 3.4 W 28 39 15 21 1014.3 1014.3 0.0
25/03:30am 8.3 2.4 -1.0 52 3.6 WSW 20 33 11 18 1014.1 1014.1 0.0
25/03:01am 8.5 1.1 -0.8 52 3.6 WSW 28 46 15 25 1013.8 1013.8 0.0
25/03:00am 8.5 1.5 -0.8 52 3.6 WSW 26 41 14 22 1013.8 1013.8 0.0
25/02:43am 8.7 1.3 -0.9 51 3.7 WSW 28 48 15 26 1013.7 1013.7 0.0
25/02:30am 8.6 1.5 -0.9 51 3.7 WSW 26 37 14 20 1013.8 1013.8 0.0
25/02:00am 8.7 1.3 -0.9 51 3.7 WSW 28 37 15 20 1013.5 1013.5 0.0
25/01:30am 8.6 1.6 -0.4 53 3.5 WSW 26 41 14 22 1013.1 1013.1 0.0
25/01:00am 8.8 2.6 -0.2 53 3.6 WSW 22 35 12 19 1012.8 1012.8 0.0
25/12:30am 8.7 3.0 -0.6 52 3.6 WSW 19 30 10 16 1012.8 1012.8 0.0
25/12:00am 8.9 3.2 -0.4 52 3.7 WSW 19 30 10 16 1012.8 1012.8 0.0
 
Date/Time
EST
Temp
°C
App
Temp
°C
Dew
Point
°C
Rel
Hum
%
Delta-T
°C
Wind Press
QNH
hPa
Press
MSL
hPa
Rain since
9am
mm
Dir  Spd
km/h
Gust
km/h
Spd
kts
Gust
kts
24/11:30pm 9.3 1.2 -0.3 51 3.8 WSW 32 41 17 22 1012.4 1012.4 0.0
24/11:00pm 9.8 1.7 -0.1 50 4.0 WSW 32 46 17 25 1011.8 1011.8 0.0
24/10:55pm 9.7 2.4 -0.2 50 3.9 WSW 28 46 15 25 1011.8 1011.8 0.0
24/10:30pm 9.5 3.0 0.1 52 3.8 WSW 24 41 13 22 1011.7 1011.7 0.0
24/10:00pm 9.7 2.8 0.1 51 3.9 WSW 26 39 14 21 1011.4 1011.4 0.0
24/09:30pm 9.7 1.7 0.3 52 3.8 WSW 32 44 17 24 1011.2 1011.2 0.0
24/09:07pm 9.9 1.9 0.3 51 3.9 WSW 32 52 17 28 1010.7 1010.7 0.0
24/09:00pm 9.8 2.1 0.2 51 3.9 WSW 30 46 16 25 1010.6 1010.6 0.0
24/08:31pm 9.9 2.3 0.3 51 3.9 WSW 30 50 16 27 1010.1 1010.1 0.0
24/08:30pm 9.9 2.3 0.5 52 3.8 WSW 30 41 16 22 1010.0 1010.0 0.0
24/08:00pm 9.9 1.4 0.8 53 3.7 W 35 54 19 29 1009.4 1009.4 0.0
24/07:30pm 9.8 1.3 0.7 53 3.7 W 35 54 19 29 1009.0 1009.0 0.0
24/07:26pm 9.8 1.8 0.7 53 3.7 W 32 54 17 29 1008.9 1008.9 0.0
24/07:00pm 10.1 3.3 1.0 53 3.8 WSW 26 37 14 20 1009.0 1009.0 0.0
24/06:59pm 10.2 3.4 0.8 52 3.9 W 26 37 14 20 1008.9 1008.9 0.0
24/06:30pm 9.3 5.8 1.5 58 3.2 SW 9 13 5 7 1008.1 1008.1 0.0
24/06:00pm 10.3 4.8 1.7 55 3.6 W 20 28 11 15 1007.6 1007.6 0.0
24/05:30pm 9.9 4.0 2.0 58 3.3 WNW 22 30 12 16 1007.0 1007.0 0.0
24/05:00pm 9.7 3.5 2.3 60 3.1 WNW 24 39 13 21 1006.4 1006.4 0.0
24/04:30pm 11.0 2.7 2.3 55 3.7 WNW 35 57 19 31 1005.9 1005.9 0.0
24/04:03pm 12.3 4.9 1.6 48 4.6 W 30 48 16 26 1005.3 1005.3 0.0
24/04:00pm 12.6 4.5 1.3 46 4.8 W 33 48 18 26 1005.1 1005.1 0.0
24/03:30pm 13.5 5.1 -0.9 37 5.9 W 33 74 18 40 1004.6 1004.6 0.0
24/03:29pm 13.7 5.5 -0.7 37 5.9 W 32 74 17 40 1004.7 1004.7 0.0
24/03:22pm 14.0 5.7 -0.4 37 6.0 W 33 52 18 28 1004.6 1004.6 0.0
24/03:00pm 13.8 6.8 -0.3 38 5.9 W 26 35 14 19 1004.3 1004.3 0.0
24/02:30pm 14.5 4.3 -0.4 36 6.2 W 43 63 23 34 1003.9 1003.9 0.0
24/02:17pm 15.7 8.1 0.3 35 6.6 W 30 48 16 26 1003.5 1003.5 0.0
24/02:00pm 15.5 7.5 0.1 35 6.6 W 32 43 17 23 1003.3 1003.3 0.0
24/01:50pm 14.8 6.5 -0.5 35 6.4 W 33 52 18 28 1003.2 1003.2 0.0

Other Formats:

Comma delimited format used in spreadsheet applications
http://www.bom.gov.au/fwo/IDN60801/IDN60801.94765.axf

JavaScript Object Notation format (JSON) in row-major order
http://www.bom.gov.au/fwo/IDN60801/IDN60801.94765.json